Lorraine — A8IZ3 — position and weather

sailwx.info

Track history (hours):
 
Tides and Currents Weather Stations Pressure Air Temp Water Temp Dewpoint Dewpoint Depression Visibility Wind Speed Wind Dir Waves Ship Positions

Lorraine

Last reported at 2014-Nov-01 12:07 UTC. Time now 2014-Nov-01 14:10 UTC.
Position N 36°46' E 023°32'.

Length 221 m; draft 8.6 m.

Type: Ship. MMSI: 636012905.

Date/timePositionNaut miles runAvg speedWind from/ knotsBaromVisibWave heightAir tempDewpointWater temp
2014-Nov-01 12:07N 36°46' E 023°32'915.6
2014-Nov-01 11:32N 36°54' E 023°38'3115.5
2014-Nov-01 09:32N 37°20' E 023°58'1515.5
2014-Nov-01 08:33N 37°34' E 024°07'1715.9
2014-Nov-01 07:31N 37°46' E 024°21'3216.0
2014-Nov-01 05:30N 38°06' E 024°53'1515.7
2014-Nov-01 04:33N 38°14' E 025°09'38 1.0
2014-Oct-30 14:33N 37°51' E 025°47'1717.6
2014-Oct-30 13:33N 37°33' E 025°50'1717.5
2014-Oct-30 12:33N 37°17' E 025°58'1717.3
2014-Oct-30 11:33N 37°02' E 026°09'1717.2
2014-Oct-30 10:33N 36°49' E 026°23'1817.9
2014-Oct-30 09:33N 36°36' E 026°39'2117.7
2014-Oct-30 08:22N 36°21' E 026°56'  
2014-Oct-27 03:10N 33°31' E 033°37'15212.8
2014-Oct-26 15:17N 31°12' E 032°21'0 0.0
2014-Oct-26 14:28N 31°12' E 032°21'0 0.0
2014-Oct-26 13:28N 31°12' E 032°21'0 0.0
2014-Oct-26 12:33N 31°12' E 032°21'0 0.0
2014-Oct-26 11:33N 31°12' E 032°21'0 0.0
2014-Oct-26 10:32N 31°12' E 032°21'0 0.0
2014-Oct-26 01:33N 31°13' E 032°21'8 8.2
2014-Oct-26 00:33N 31°21' E 032°22'4 4.3
2014-Oct-25 23:33N 31°23' E 032°17'0 0.1
2014-Oct-25 22:25N 31°23' E 032°17'0 0.0
2014-Oct-25 16:16N 31°23' E 032°17'0 0.0
2014-Oct-25 15:13N 31°23' E 032°17'0 0.0
2014-Oct-25 14:10N 31°23' E 032°17'0 0.0
2014-Oct-25 13:33N 31°23' E 032°17'0 0.0
2014-Oct-25 12:33N 31°23' E 032°17'0 0.0
2014-Oct-25 11:32N 31°23' E 032°17'0 0.0
2014-Oct-25 10:32N 31°23' E 032°17'0 0.0
2014-Oct-25 09:10N 31°23' E 032°17'0 0.0
2014-Oct-25 08:31N 31°23' E 032°17'0 0.0
2014-Oct-25 07:31N 31°23' E 032°17'0 0.0
2014-Oct-24 05:07N 31°23' E 032°17'0 0.1
2014-Oct-24 04:28N 31°23' E 032°17'  
Track history (hours):
 
Tides and Currents Weather Stations Pressure Air Temp Water Temp Dewpoint Dewpoint Depression Visibility Wind Speed Wind Dir Waves Ship Positions

Lorraine

Last reported at 2014-Nov-01 12:07 UTC. Time now 2014-Nov-01 14:10 UTC.
Position N 36°46' E 023°32'.

Length 221 m; draft 8.6 m.

Type: Ship. MMSI: 636012905.

Date/timePositionNaut miles runAvg speedWind from/ knotsBaromVisibWave heightAir tempDewpointWater temp
2014-Nov-01 12:07N 36°46' E 023°32'915.6
2014-Nov-01 11:32N 36°54' E 023°38'3115.5
2014-Nov-01 09:32N 37°20' E 023°58'1515.5
2014-Nov-01 08:33N 37°34' E 024°07'1715.9
2014-Nov-01 07:31N 37°46' E 024°21'3216.0
2014-Nov-01 05:30N 38°06' E 024°53'1515.7
2014-Nov-01 04:33N 38°14' E 025°09'38 1.0
2014-Oct-30 14:33N 37°51' E 025°47'1717.6
2014-Oct-30 13:33N 37°33' E 025°50'1717.5
2014-Oct-30 12:33N 37°17' E 025°58'1717.3
2014-Oct-30 11:33N 37°02' E 026°09'1717.2
2014-Oct-30 10:33N 36°49' E 026°23'1817.9
2014-Oct-30 09:33N 36°36' E 026°39'2117.7
2014-Oct-30 08:22N 36°21' E 026°56'  
2014-Oct-27 03:10N 33°31' E 033°37'15212.8
2014-Oct-26 15:17N 31°12' E 032°21'0 0.0
2014-Oct-26 14:28N 31°12' E 032°21'0 0.0
2014-Oct-26 13:28N 31°12' E 032°21'0 0.0
2014-Oct-26 12:33N 31°12' E 032°21'0 0.0
2014-Oct-26 11:33N 31°12' E 032°21'0 0.0
2014-Oct-26 10:32N 31°12' E 032°21'0 0.0
2014-Oct-26 01:33N 31°13' E 032°21'8 8.2
2014-Oct-26 00:33N 31°21' E 032°22'4 4.3
2014-Oct-25 23:33N 31°23' E 032°17'0 0.1
2014-Oct-25 22:25N 31°23' E 032°17'0 0.0
2014-Oct-25 16:16N 31°23' E 032°17'0 0.0
2014-Oct-25 15:13N 31°23' E 032°17'0 0.0
2014-Oct-25 14:10N 31°23' E 032°17'0 0.0
2014-Oct-25 13:33N 31°23' E 032°17'0 0.0
2014-Oct-25 12:33N 31°23' E 032°17'0 0.0
2014-Oct-25 11:32N 31°23' E 032°17'0 0.0
2014-Oct-25 10:32N 31°23' E 032°17'0 0.0
2014-Oct-25 09:10N 31°23' E 032°17'0 0.0
2014-Oct-25 08:31N 31°23' E 032°17'0 0.0
2014-Oct-25 07:31N 31°23' E 032°17'0 0.0
2014-Oct-24 05:07N 31°23' E 032°17'0 0.1
2014-Oct-24 04:28N 31°23' E 032°17'  

Dump ship's entire track history